Time;durP1;ratioP1;P1;durP2;ratioP2;P2;SDS_P1;SDS_P2;PMS_P1;PMS_P2;Temp;Humidity;BMP_temperature;BMP_pressure;BME280_temperature;BME280_humidity;BME280_pressure;Samples;Min_cycle;Max_cycle;Signal;HPM_P1;HPM_P2
2020/12/18 00:43:22;;;;;;;19.60;16.55;;;4.60;99.90;;;;;;5111441;27;20307;-74
2020/12/18 00:45:48;;;;;;;40.17;19.42;;;4.60;99.90;;;;;;5092152;28;20103;-72
2020/12/18 00:48:13;;;;;;;24.08;16.42;;;4.50;99.90;;;;;;5091256;28;20046;-72
2020/12/18 00:50:39;;;;;;;19.55;17.23;;;4.50;99.90;;;;;;5088624;28;20073;-70
2020/12/18 00:53:04;;;;;;;17.45;15.15;;;4.40;99.90;;;;;;5090198;28;20103;-70
2020/12/18 00:55:31;;;;;;;18.73;15.90;;;4.40;99.90;;;;;;5089400;28;20094;-70
2020/12/18 00:57:56;;;;;;;15.32;13.82;;;4.40;99.90;;;;;;5090240;28;20027;-70
2020/12/18 01:00:22;;;;;;;17.15;14.18;;;4.40;99.90;;;;;;5084386;28;20032;-70
2020/12/18 01:02:48;;;;;;;16.88;14.65;;;4.40;99.90;;;;;;5102398;28;20024;-71
2020/12/18 01:05:13;;;;;;;18.70;14.07;;;4.30;99.90;;;;;;5095505;28;20037;-71
2020/12/18 01:07:39;;;;;;;17.63;15.70;;;4.30;99.90;;;;;;5090988;28;20021;-70
2020/12/18 01:10:05;;;;;;;17.85;13.63;;;4.30;99.90;;;;;;5097716;28;20109;-71
2020/12/18 01:12:30;;;;;;;16.90;14.23;;;4.30;99.90;;;;;;5101427;28;20029;-70
2020/12/18 01:14:56;;;;;;;15.32;12.63;;;4.30;99.90;;;;;;5117897;28;20050;-70
2020/12/18 01:17:22;;;;;;;23.95;15.27;;;4.30;99.90;;;;;;5106546;28;20036;-70
2020/12/18 01:19:47;;;;;;;14.98;13.32;;;4.30;99.90;;;;;;5101608;28;20028;-70
2020/12/18 01:22:13;;;;;;;17.38;14.55;;;4.40;99.90;;;;;;5110236;28;20119;-70
2020/12/18 01:24:39;;;;;;;16.60;12.27;;;4.40;99.90;;;;;;5095670;28;20028;-72
2020/12/18 01:27:04;;;;;;;14.05;12.55;;;4.40;99.90;;;;;;5099831;28;20108;-71
2020/12/18 01:29:30;;;;;;;16.15;14.38;;;4.40;99.90;;;;;;5090467;28;20048;-70
2020/12/18 01:31:56;;;;;;;15.50;13.85;;;4.40;99.90;;;;;;5099258;28;20050;-70
2020/12/18 01:34:21;;;;;;;19.83;13.68;;;4.40;99.90;;;;;;5098458;28;20514;-70
2020/12/18 01:36:47;;;;;;;19.52;14.23;;;4.50;99.90;;;;;;5104595;28;20499;-70
2020/12/18 01:39:13;;;;;;;15.82;14.13;;;4.60;99.90;;;;;;5091064;28;20387;-72
2020/12/18 01:41:38;;;;;;;15.60;13.20;;;4.70;99.90;;;;;;5097177;28;20023;-71
2020/12/18 01:44:04;;;;;;;16.92;13.32;;;4.80;99.90;;;;;;5100880;28;20030;-70
2020/12/18 01:46:30;;;;;;;15.60;13.20;;;4.90;99.90;;;;;;5090970;28;20024;-70
2020/12/18 01:48:57;;;;;;;14.07;12.10;;;4.90;99.90;;;;;;5098735;28;20020;-70
2020/12/18 01:51:23;;;;;;;17.58;12.27;;;4.80;99.90;;;;;;5093812;28;20035;-70
2020/12/18 01:53:51;;;;;;;14.15;11.57;;;4.80;99.90;;;;;;5013491;27;20053;-71
2020/12/18 01:56:18;;;;;;;14.63;12.82;;;4.80;99.90;;;;;;5047872;28;20063;-71
2020/12/18 01:58:44;;;;;;;15.45;12.35;;;4.70;99.90;;;;;;5054772;28;20017;-72
2020/12/18 02:01:10;;;;;;;17.40;12.10;;;4.70;99.90;;;;;;5050603;28;20114;-70
2020/12/18 02:03:37;;;;;;;15.30;11.77;;;4.60;99.90;;;;;;5055864;28;20025;-71
2020/12/18 02:06:06;;;;;;;15.38;12.18;;;4.50;99.90;;;;;;5060288;28;20028;-71
2020/12/18 02:08:32;;;;;;;16.73;13.57;;;4.50;99.90;;;;;;5060662;28;20057;-71
2020/12/18 02:10:59;;;;;;;16.25;12.02;;;4.40;99.90;;;;;;5052242;28;20544;-71
2020/12/18 02:13:25;;;;;;;16.50;13.10;;;4.40;99.90;;;;;;5052964;28;20022;-71
2020/12/18 02:15:55;;;;;;;14.05;12.57;;;4.40;99.90;;;;;;5058638;28;20118;-70
2020/12/18 02:18:23;;;;;;;14.40;12.20;;;4.40;99.90;;;;;;5072918;28;20036;-71
2020/12/18 02:20:52;;;;;;;17.63;13.50;;;4.40;99.90;;;;;;5065248;28;20300;-71
2020/12/18 02:23:17;;;;;;;14.15;12.20;;;4.30;99.90;;;;;;5051706;28;20473;-71
2020/12/18 02:25:43;;;;;;;14.85;12.63;;;4.40;99.90;;;;;;5043261;28;20024;-71
2020/12/18 02:28:10;;;;;;;14.77;12.25;;;4.30;99.90;;;;;;5053712;28;20566;-71
2020/12/18 02:30:36;;;;;;;12.98;11.68;;;4.20;99.90;;;;;;5036554;28;20370;-71
2020/12/18 02:33:09;;;;;;;15.82;12.60;;;4.10;99.90;;;;;;5039661;28;20030;-71
2020/12/18 02:35:34;;;;;;;15.70;13.20;;;4.10;99.90;;;;;;5027982;28;20357;-72
2020/12/18 02:38:02;;;;;;;15.35;13.52;;;4.10;99.90;;;;;;5039576;28;20021;-72
2020/12/18 02:40:27;;;;;;;18.70;12.90;;;4.10;99.90;;;;;;5052159;28;20032;-71
2020/12/18 02:42:53;;;;;;;15.55;13.88;;;4.10;99.90;;;;;;5035553;28;20029;-70
2020/12/18 02:45:18;;;;;;;15.93;13.55;;;4.10;99.90;;;;;;5040874;28;20029;-71
2020/12/18 02:47:44;;;;;;;15.25;13.70;;;4.10;99.90;;;;;;5052553;28;20064;-71
2020/12/18 02:50:10;;;;;;;16.45;13.38;;;4.10;99.90;;;;;;5067882;28;20020;-71
2020/12/18 02:52:36;;;;;;;15.07;12.55;;;4.10;99.90;;;;;;5067136;28;20029;-71
2020/12/18 02:55:02;;;;;;;14.00;12.57;;;4.10;99.90;;;;;;5055324;28;20079;-71
2020/12/18 02:57:27;;;;;;;18.13;14.20;;;4.10;99.90;;;;;;5046133;28;20022;-71
2020/12/18 02:59:53;;;;;;;14.88;13.27;;;4.10;99.90;;;;;;5041376;28;20071;-71
2020/12/18 03:02:19;;;;;;;15.45;12.70;;;4.10;99.90;;;;;;5034826;28;20061;-70
2020/12/18 03:04:44;;;;;;;15.18;13.20;;;4.20;99.90;;;;;;5036848;28;20377;-71
2020/12/18 03:07:10;;;;;;;17.02;13.48;;;4.20;99.90;;;;;;5057646;28;20492;-70
2020/12/18 03:09:35;;;;;;;15.25;12.02;;;4.40;99.90;;;;;;5064213;28;20090;-71
2020/12/18 03:12:01;;;;;;;13.63;12.25;;;4.40;99.90;;;;;;5062677;28;20082;-71
2020/12/18 03:14:26;;;;;;;15.77;13.98;;;4.60;99.90;;;;;;5060137;28;20112;-71
2020/12/18 03:16:52;;;;;;;14.35;12.95;;;4.80;99.90;;;;;;5056239;28;20025;-70
2020/12/18 03:19:17;;;;;;;15.05;12.43;;;4.80;99.90;;;;;;5047073;28;20029;-72
2020/12/18 03:21:43;;;;;;;14.88;12.00;;;4.80;99.90;;;;;;5053087;28;20060;-71
2020/12/18 03:24:09;;;;;;;17.45;14.68;;;4.90;99.90;;;;;;5037258;28;20044;-71
2020/12/18 03:26:34;;;;;;;17.35;13.65;;;4.90;99.90;;;;;;5046545;28;20033;-70
2020/12/18 03:29:00;;;;;;;17.35;14.38;;;4.90;99.90;;;;;;5040182;28;20421;-70
2020/12/18 03:31:25;;;;;;;17.25;14.32;;;4.80;99.90;;;;;;5046905;28;20029;-71
2020/12/18 03:33:51;;;;;;;15.90;14.00;;;4.90;99.90;;;;;;5042687;28;20048;-71
2020/12/18 03:36:16;;;;;;;14.10;12.70;;;4.80;99.90;;;;;;5033977;28;20032;-70
2020/12/18 03:38:42;;;;;;;18.05;13.50;;;4.80;99.90;;;;;;5038562;28;20029;-70
2020/12/18 03:41:07;;;;;;;16.30;13.50;;;4.80;99.90;;;;;;5046747;28;20108;-70
2020/12/18 03:43:36;;;;;;;15.52;11.25;;;4.80;99.90;;;;;;5037912;28;20387;-71
2020/12/18 03:46:02;;;;;;;15.15;12.60;;;4.80;99.90;;;;;;5041748;28;20488;-71
2020/12/18 03:48:28;;;;;;;14.23;12.77;;;4.80;99.90;;;;;;5047055;28;20037;-70
2020/12/18 03:50:53;;;;;;;14.07;12.60;;;4.90;99.90;;;;;;5043062;28;20117;-70
2020/12/18 03:53:19;;;;;;;13.13;11.73;;;4.90;99.90;;;;;;5044934;28;20029;-70
2020/12/18 03:55:44;;;;;;;15.73;13.23;;;5.00;99.90;;;;;;5037422;28;20111;-70
2020/12/18 03:58:10;;;;;;;16.55;13.27;;;5.00;99.90;;;;;;5044282;28;20484;-72
2020/12/18 04:00:39;;;;;;;14.02;12.57;;;5.00;99.90;;;;;;5039704;28;20037;-72
2020/12/18 04:03:05;;;;;;;14.52;12.60;;;5.00;99.90;;;;;;5046435;28;20087;-70
2020/12/18 04:05:30;;;;;;;14.48;12.93;;;5.00;99.90;;;;;;5048205;28;20540;-71
2020/12/18 04:07:56;;;;;;;15.82;13.63;;;5.00;99.90;;;;;;5033233;28;20028;-70
2020/12/18 04:10:21;;;;;;;14.93;13.18;;;5.00;99.90;;;;;;5045762;28;20044;-70
2020/12/18 04:12:47;;;;;;;14.40;12.77;;;5.00;99.90;;;;;;5034065;28;20021;-70
2020/12/18 04:15:13;;;;;;;14.57;12.35;;;5.20;99.90;;;;;;5036100;28;20064;-70
2020/12/18 04:17:38;;;;;;;15.75;13.00;;;5.40;99.90;;;;;;5038245;28;20045;-70
2020/12/18 04:20:04;;;;;;;14.50;12.82;;;5.50;99.90;;;;;;5031894;28;20087;-70
2020/12/18 04:22:30;;;;;;;13.75;12.35;;;5.50;99.90;;;;;;5046723;28;20493;-71
2020/12/18 04:24:56;;;;;;;14.30;12.63;;;5.50;99.90;;;;;;5037160;28;20326;-72
2020/12/18 04:27:22;;;;;;;15.00;13.43;;;5.30;99.90;;;;;;5034686;28;20477;-70
2020/12/18 04:29:47;;;;;;;14.05;12.43;;;5.10;99.90;;;;;;5040957;28;20079;-70
2020/12/18 04:32:13;;;;;;;16.38;14.77;;;5.10;99.90;;;;;;5032632;28;20060;-70
2020/12/18 04:34:39;;;;;;;14.82;13.23;;;5.00;99.90;;;;;;5034476;28;20029;-71
2020/12/18 04:37:05;;;;;;;14.65;13.02;;;4.90;99.90;;;;;;5044472;28;20436;-73
2020/12/18 04:39:30;;;;;;;14.93;13.32;;;4.80;99.90;;;;;;5033504;28;20029;-71
2020/12/18 04:41:56;;;;;;;14.23;12.77;;;4.80;99.90;;;;;;5049675;28;20434;-71
2020/12/18 04:44:23;;;;;;;15.75;14.02;;;4.80;99.90;;;;;;5048670;28;20071;-70
2020/12/18 04:46:50;;;;;;;16.92;14.98;;;4.70;99.90;;;;;;5038851;28;20057;-71
2020/12/18 04:49:17;;;;;;;20.73;14.85;;;4.60;99.90;;;;;;5036976;28;20464;-71
2020/12/18 04:51:43;;;;;;;16.02;14.32;;;4.60;99.90;;;;;;5046970;28;20040;-70
2020/12/18 04:54:10;;;;;;;20.05;15.15;;;4.60;99.90;;;;;;5047216;28;20049;-70
2020/12/18 04:56:38;;;;;;;18.27;16.27;;;4.50;99.90;;;;;;5054811;28;20028;-71
2020/12/18 04:59:04;;;;;;;21.73;16.98;;;4.50;99.90;;;;;;5022451;28;20048;-70
2020/12/18 05:01:30;;;;;;;25.70;15.48;;;4.50;99.90;;;;;;5052265;28;20025;-70
2020/12/18 05:03:57;;;;;;;17.08;15.30;;;4.50;99.90;;;;;;5038250;28;20026;-70
2020/12/18 05:06:23;;;;;;;17.52;15.00;;;4.50;99.90;;;;;;5028235;23;20046;-76
2020/12/18 05:08:48;;;;;;;17.33;15.57;;;4.50;99.90;;;;;;4995739;28;20049;-77
2020/12/18 05:11:27;;;;;;;18.55;15.05;;;4.40;99.90;;;;;;5010936;28;20363;-76
2020/12/18 05:13:55;;;;;;;20.10;15.40;;;4.40;99.90;;;;;;5002378;28;20098;-76
2020/12/18 05:16:22;;;;;;;16.73;14.95;;;4.30;99.90;;;;;;5033944;28;20033;-76
2020/12/18 05:18:51;;;;;;;17.33;15.38;;;4.30;99.90;;;;;;5032077;28;20109;-76
2020/12/18 05:21:18;;;;;;;19.52;15.07;;;4.30;99.90;;;;;;5010633;28;20087;-77
2020/12/18 05:23:45;;;;;;;18.45;15.45;;;4.30;99.90;;;;;;5030381;28;20026;-77
2020/12/18 05:26:12;;;;;;;18.20;14.93;;;4.30;99.90;;;;;;5019317;28;20073;-77
2020/12/18 05:28:45;;;;;;;16.48;14.23;;;4.50;99.90;;;;;;5030313;28;20038;-75
2020/12/18 05:31:15;;;;;;;15.63;14.13;;;4.60;99.90;;;;;;5016499;28;20085;-77
2020/12/18 05:33:41;;;;;;;16.65;14.85;;;4.50;99.90;;;;;;5001431;28;20026;-77
2020/12/18 05:36:08;;;;;;;16.27;14.57;;;4.50;99.90;;;;;;4997781;28;20026;-76
2020/12/18 05:38:37;;;;;;;19.20;13.25;;;4.60;99.90;;;;;;4990355;28;20054;-76
2020/12/18 05:41:05;;;;;;;18.42;15.07;;;4.60;99.90;;;;;;5004922;28;20109;-76
2020/12/18 05:43:38;;;;;;;18.40;14.30;;;4.70;99.90;;;;;;4997716;28;20038;-77
2020/12/18 05:46:20;;;;;;;18.60;14.55;;;4.50;99.90;;;;;;4976812;28;20026;-76
2020/12/18 05:49:00;;;;;;;16.48;14.80;;;4.40;99.90;;;;;;4981442;28;20036;-76
2020/12/18 05:51:29;;;;;;;17.65;15.90;;;4.30;99.90;;;;;;4964436;28;20026;-76
2020/12/18 05:54:13;;;;;;;17.38;15.50;;;4.30;99.90;;;;;;5006449;28;20018;-76
2020/12/18 05:56:40;;;;;;;19.33;15.93;;;4.30;99.90;;;;;;5009465;28;20041;-74
2020/12/18 05:59:16;;;;;;;19.90;16.10;;;4.20;99.90;;;;;;5000611;28;20105;-75
2020/12/18 06:01:46;;;;;;;19.42;17.00;;;4.30;99.90;;;;;;5016156;28;20112;-75
2020/12/18 06:04:20;;;;;;;18.75;16.33;;;4.30;99.90;;;;;;5011051;28;20022;-75
2020/12/18 06:06:50;;;;;;;23.20;18.30;;;4.40;99.90;;;;;;5005285;28;20053;-75
2020/12/18 06:09:17;;;;;;;19.27;15.75;;;4.50;99.90;;;;;;5009068;28;20061;-76
2020/12/18 06:11:44;;;;;;;15.98;14.23;;;4.60;99.90;;;;;;5011173;28;20113;-76
2020/12/18 06:14:11;;;;;;;16.10;14.40;;;4.70;99.90;;;;;;4995945;28;20497;-76
2020/12/18 06:16:48;;;;;;;17.20;14.52;;;4.90;99.90;;;;;;4998854;28;20371;-76
2020/12/18 06:19:16;;;;;;;16.35;14.05;;;4.90;99.90;;;;;;4996368;28;20563;-77
2020/12/18 06:21:52;;;;;;;17.33;13.00;;;4.80;99.90;;;;;;5015190;28;20037;-76
2020/12/18 06:24:18;;;;;;;14.63;12.95;;;4.80;99.90;;;;;;5015650;28;20478;-76
2020/12/18 06:26:45;;;;;;;14.93;12.63;;;4.70;99.90;;;;;;4996495;28;20111;-77
2020/12/18 06:29:16;;;;;;;13.40;11.95;;;4.60;99.90;;;;;;5004743;28;20525;-76
2020/12/18 06:31:42;;;;;;;;;;;4.70;99.90;;;;;;5000901;28;20057;-76
2020/12/18 06:34:10;;;;;;;16.95;13.45;;;4.50;99.90;;;;;;4999749;28;19909;-77
2020/12/18 06:36:48;;;;;;;16.55;14.15;;;4.40;99.90;;;;;;4995099;28;20026;-76
2020/12/18 06:39:25;;;;;;;17.13;13.98;;;4.30;99.90;;;;;;4997312;28;20038;-76
2020/12/18 06:42:27;;;;;;;16.75;14.10;;;4.30;99.90;;;;;;4997582;28;20489;-76
2020/12/18 06:45:00;;;;;;;16.70;13.88;;;4.30;99.90;;;;;;4975524;28;20027;-76
2020/12/18 06:47:28;;;;;;;18.20;16.08;;;4.20;99.90;;;;;;5007212;28;20022;-76
2020/12/18 06:50:02;;;;;;;18.20;14.20;;;4.20;99.90;;;;;;5007670;28;20030;-76
2020/12/18 06:52:56;;;;;;;18.58;14.48;;;4.30;99.90;;;;;;5003058;28;20067;-77
2020/12/18 06:55:30;;;;;;;17.92;16.02;;;4.30;99.90;;;;;;4994851;28;20120;-76
2020/12/18 07:00:44;;;;;;;19.77;14.93;;;4.30;99.90;;;;;;4992383;28;20046;-76
2020/12/18 07:03:10;;;;;;;16.52;14.68;;;4.40;99.90;;;;;;4996020;28;20032;-77
2020/12/18 07:05:43;;;;;;;16.30;14.02;;;4.30;99.90;;;;;;4997420;28;20034;-76
2020/12/18 07:08:17;;;;;;;18.17;14.65;;;4.30;99.90;;;;;;4995670;28;20382;-76
2020/12/18 07:10:45;;;;;;;19.17;15.02;;;4.30;99.90;;;;;;5002581;28;20117;-76
2020/12/18 07:13:20;;;;;;;19.45;14.65;;;4.30;99.90;;;;;;5010990;28;20108;-76
2020/12/18 07:15:50;;;;;;;21.17;16.33;;;4.40;99.90;;;;;;4996305;28;20422;-76
2020/12/18 07:18:20;;;;;;;20.30;13.95;;;4.50;99.90;;;;;;5002840;28;20037;-76
2020/12/18 07:20:48;;;;;;;24.95;15.85;;;4.60;99.90;;;;;;5012538;28;20461;-75
2020/12/18 07:23:14;;;;;;;18.92;14.32;;;4.70;99.90;;;;;;5011063;28;20134;-77
2020/12/18 07:25:40;;;;;;;19.10;14.20;;;4.80;99.90;;;;;;5005166;28;20038;-76
2020/12/18 07:28:06;;;;;;;20.10;14.95;;;4.80;99.90;;;;;;5010427;28;20021;-76
2020/12/18 07:30:36;;;;;;;19.80;15.80;;;4.90;99.90;;;;;;4997888;28;20133;-78
2020/12/18 07:33:02;;;;;;;17.53;13.80;;;5.00;99.90;;;;;;5003474;28;20029;-76
2020/12/18 07:35:27;;;;;;;21.52;16.35;;;5.00;99.90;;;;;;5001874;28;20065;-75
2020/12/18 07:37:53;;;;;;;17.27;14.60;;;5.00;99.90;;;;;;4992979;28;20541;-77
2020/12/18 07:40:19;;;;;;;18.00;14.93;;;5.00;99.90;;;;;;4995399;28;20023;-78
2020/12/18 07:42:44;;;;;;;17.60;14.18;;;5.00;99.90;;;;;;4998919;28;20033;-75
2020/12/18 07:45:10;;;;;;;16.70;14.88;;;5.00;99.90;;;;;;5012936;28;20630;-77
2020/12/18 07:47:39;;;;;;;27.65;20.02;;;5.00;99.90;;;;;;5005694;28;20034;-77
2020/12/18 07:50:07;;;;;;;65.85;33.80;;;5.10;99.90;;;;;;4996435;28;20522;-77
2020/12/18 07:52:34;;;;;;;38.92;23.77;;;5.10;99.90;;;;;;4994446;28;20045;-76
2020/12/18 07:55:00;;;;;;;67.45;38.70;;;5.10;99.90;;;;;;4997165;28;20050;-76
2020/12/18 07:57:26;;;;;;;48.67;26.23;;;5.20;99.90;;;;;;4996210;28;20041;-76
2020/12/18 08:00:05;;;;;;;24.88;17.90;;;5.30;99.90;;;;;;5012351;28;20045;-76
2020/12/18 08:02:31;;;;;;;25.83;18.05;;;5.40;99.90;;;;;;5002180;28;20158;-76
2020/12/18 08:04:58;;;;;;;24.55;17.70;;;5.50;99.90;;;;;;4996091;28;20022;-77
2020/12/18 08:07:23;;;;;;;18.45;15.52;;;5.60;99.90;;;;;;5002183;28;20037;-77
2020/12/18 08:10:03;;;;;;;23.48;13.52;;;5.60;99.90;;;;;;4985754;28;20031;-76
2020/12/18 08:12:29;;;;;;;14.73;13.23;;;6.00;99.90;;;;;;4990652;28;20034;-76
2020/12/18 08:15:12;;;;;;;15.98;14.23;;;6.00;99.90;;;;;;5013364;28;20022;-76
2020/12/18 08:17:38;;;;;;;19.13;14.50;;;5.90;99.90;;;;;;5019015;28;20026;-75
2020/12/18 08:20:13;;;;;;;22.83;14.20;;;5.90;99.90;;;;;;5000567;28;20026;-76
2020/12/18 08:22:45;;;;;;;18.80;14.02;;;5.90;99.90;;;;;;4998544;28;20118;-76
2020/12/18 08:25:15;;;;;;;21.02;13.48;;;5.90;99.90;;;;;;4995294;28;20403;-75
2020/12/18 08:27:48;;;;;;;18.48;12.95;;;6.10;99.90;;;;;;5006511;28;20026;-76
2020/12/18 08:30:16;;;;;;;16.27;12.65;;;6.20;99.90;;;;;;5013900;28;20026;-76
2020/12/18 08:32:47;;;;;;;15.98;13.52;;;6.30;99.90;;;;;;4995965;28;20394;-76
2020/12/18 08:35:19;;;;;;;20.65;12.63;;;6.30;99.90;;;;;;4994621;28;20022;-75
2020/12/18 08:37:44;;;;;;;20.83;12.43;;;6.60;99.90;;;;;;5008222;28;20088;-76
2020/12/18 08:40:21;;;;;;;17.48;12.38;;;6.60;99.90;;;;;;5014193;28;20033;-77
2020/12/18 08:43:02;;;;;;;14.93;12.10;;;6.50;99.90;;;;;;5011176;28;20029;-76
2020/12/18 08:45:28;;;;;;;18.02;13.13;;;6.40;99.90;;;;;;5014224;28;20026;-76
2020/12/18 08:47:55;;;;;;;14.60;11.63;;;6.40;99.90;;;;;;4999906;28;20061;-75
2020/12/18 08:50:22;;;;;;;13.80;11.60;;;6.50;99.90;;;;;;5006284;28;20034;-76
2020/12/18 08:52:48;;;;;;;20.00;12.75;;;6.60;99.90;;;;;;5003431;28;20041;-76
2020/12/18 08:55:14;;;;;;;14.23;12.68;;;6.60;99.90;;;;;;5004595;28;20084;-74
2020/12/18 08:57:40;;;;;;;14.30;12.90;;;6.50;99.90;;;;;;5008893;28;20398;-76
2020/12/18 09:00:15;;;;;;;17.15;11.80;;;6.60;99.90;;;;;;4993372;28;20125;-76
2020/12/18 09:02:50;;;;;;;15.57;11.52;;;6.80;99.90;;;;;;4999365;28;20081;-76
2020/12/18 09:05:22;;;;;;;19.67;13.20;;;6.80;99.90;;;;;;5010582;28;20163;-76
2020/12/18 09:07:56;;;;;;;12.52;11.23;;;6.90;99.90;;;;;;5015531;28;20018;-76
2020/12/18 09:10:42;;;;;;;13.02;11.65;;;7.20;99.90;;;;;;5014338;28;20038;-76
2020/12/18 09:13:16;;;;;;;14.85;11.30;;;7.30;99.90;;;;;;5020013;28;20040;-76
2020/12/18 09:16:06;;;;;;;19.38;11.68;;;7.20;99.90;;;;;;5006316;28;20121;-75
2020/12/18 09:18:44;;;;;;;12.90;11.52;;;7.20;99.90;;;;;;5008454;28;20049;-78
2020/12/18 09:21:09;;;;;;;16.98;12.18;;;7.10;99.90;;;;;;4994153;28;20045;-77
2020/12/18 09:23:36;;;;;;;13.75;11.90;;;7.10;99.90;;;;;;4984081;28;20074;-77
2020/12/18 09:26:03;;;;;;;16.23;11.52;;;7.10;99.90;;;;;;5018905;28;20034;-77
2020/12/18 09:28:41;;;;;;;15.25;11.23;;;7.20;99.90;;;;;;5023933;28;20026;-74
2020/12/18 09:31:08;;;;;;;14.73;10.95;;;7.40;99.90;;;;;;5009318;28;20053;-75
2020/12/18 09:33:37;;;;;;;18.45;11.85;;;7.50;99.90;;;;;;5018892;28;20030;-76
2020/12/18 09:36:13;;;;;;;12.68;11.40;;;7.70;99.90;;;;;;5017879;28;20053;-76
2020/12/18 09:38:46;;;;;;;18.70;11.63;;;7.70;99.90;;;;;;5000022;28;20034;-76
2020/12/18 09:41:13;;;;;;;12.70;11.40;;;7.50;99.90;;;;;;5014500;28;20027;-75
2020/12/18 09:43:40;;;;;;;13.85;12.32;;;7.50;99.90;;;;;;5006856;28;20033;-77
2020/12/18 09:46:11;;;;;;;14.13;11.82;;;7.50;99.90;;;;;;5000199;28;20077;-76
2020/12/18 09:48:38;;;;;;;13.70;11.38;;;7.50;99.90;;;;;;4984933;28;20074;-76
2020/12/18 09:51:04;;;;;;;17.27;13.30;;;7.50;99.90;;;;;;4985480;28;20034;-77
2020/12/18 09:53:30;;;;;;;12.38;11.05;;;7.70;99.90;;;;;;5012719;28;20018;-76
2020/12/18 09:55:55;;;;;;;13.63;10.77;;;7.90;99.90;;;;;;4993922;28;20042;-76
2020/12/18 09:58:21;;;;;;;13.00;11.60;;;8.10;99.90;;;;;;4994393;28;20034;-76
2020/12/18 10:00:47;;;;;;;12.20;10.48;;;8.30;99.90;;;;;;4998214;28;20030;-76
2020/12/18 10:03:13;;;;;;;11.23;10.13;;;8.50;99.90;;;;;;4995241;28;20046;-76
2020/12/18 10:05:38;;;;;;;13.38;11.93;;;8.30;99.90;;;;;;4999272;28;20036;-75
2020/12/18 10:08:04;;;;;;;15.13;11.57;;;8.20;99.90;;;;;;4996875;28;20030;-76
2020/12/18 10:10:30;;;;;;;11.90;10.70;;;8.30;99.90;;;;;;4992919;28;20067;-76
2020/12/18 10:12:57;;;;;;;15.20;11.15;;;8.70;99.90;;;;;;5000614;28;20105;-75
2020/12/18 10:15:23;;;;;;;13.20;10.73;;;8.90;99.90;;;;;;4995045;28;20121;-75
2020/12/18 10:17:49;;;;;;;12.77;11.45;;;9.00;99.90;;;;;;5002657;28;20033;-77
2020/12/18 10:20:15;;;;;;;14.63;10.95;;;9.00;99.90;;;;;;4992191;28;20030;-75
2020/12/18 10:22:41;;;;;;;12.88;11.63;;;9.10;99.90;;;;;;4984175;28;20391;-77
2020/12/18 10:25:07;;;;;;;12.93;11.60;;;9.10;99.90;;;;;;4987732;28;20029;-76
2020/12/18 10:27:33;;;;;;;12.82;11.07;;;9.10;99.90;;;;;;5005400;28;20506;-75
2020/12/18 10:29:59;;;;;;;12.80;10.90;;;9.10;99.90;;;;;;4999811;28;20042;-79
2020/12/18 10:32:26;;;;;;;15.52;11.70;;;9.00;99.90;;;;;;4994315;28;20049;-77
2020/12/18 10:34:52;;;;;;;15.57;12.38;;;8.90;99.90;;;;;;4992030;28;20113;-75
2020/12/18 10:37:18;;;;;;;14.45;12.30;;;8.70;99.90;;;;;;4997084;28;20057;-74
2020/12/18 10:39:43;;;;;;;13.63;11.65;;;8.90;99.90;;;;;;5003969;28;20507;-75
2020/12/18 10:42:09;;;;;;;13.77;12.23;;;9.00;99.90;;;;;;4995237;28;20065;-78
2020/12/18 10:44:35;;;;;;;16.23;12.57;;;8.90;99.90;;;;;;4993041;28;20053;-75
2020/12/18 10:47:01;;;;;;;17.20;13.00;;;8.90;99.90;;;;;;4997223;28;20402;-76
2020/12/18 10:49:27;;;;;;;16.80;11.52;;;8.80;99.90;;;;;;5009871;28;20022;-74
2020/12/18 10:51:53;;;;;;;15.45;12.13;;;8.80;99.90;;;;;;4992469;28;20085;-74
2020/12/18 10:54:19;;;;;;;17.02;12.73;;;9.00;99.90;;;;;;5015662;28;20117;-75
2020/12/18 10:56:47;;;;;;;15.27;12.63;;;9.10;99.90;;;;;;5004872;28;20397;-74
2020/12/18 10:59:13;;;;;;;14.93;13.02;;;9.10;99.90;;;;;;4995788;28;20030;-75
2020/12/18 11:01:39;;;;;;;21.98;11.60;;;9.10;99.90;;;;;;5008120;28;20046;-74
2020/12/18 11:04:05;;;;;;;22.42;12.80;;;9.30;99.90;;;;;;5002352;28;20524;-76
2020/12/18 11:06:31;;;;;;;16.63;11.32;;;9.10;99.90;;;;;;5025780;23;20112;-69
2020/12/18 11:08:58;;;;;;;17.35;12.75;;;9.00;99.90;;;;;;4996971;28;20022;-70
2020/12/18 11:11:24;;;;;;;17.58;12.40;;;9.10;99.90;;;;;;5012183;28;20030;-70
2020/12/18 11:13:50;;;;;;;18.30;13.15;;;9.30;99.90;;;;;;5000199;28;20021;-71
2020/12/18 11:16:16;;;;;;;18.80;13.65;;;9.60;99.90;;;;;;4990885;28;20568;-70
2020/12/18 11:18:42;;;;;;;12.90;11.63;;;9.60;99.90;;;;;;4977960;28;20411;-71
2020/12/18 11:21:08;;;;;;;16.95;12.75;;;9.70;99.90;;;;;;4979664;28;20023;-70
2020/12/18 11:23:35;;;;;;;16.48;13.00;;;9.70;99.90;;;;;;4978556;28;20031;-71
2020/12/18 11:26:02;;;;;;;21.05;12.43;;;9.60;99.90;;;;;;4976603;28;20101;-72
2020/12/18 11:28:28;;;;;;;15.13;12.25;;;9.70;99.90;;;;;;4985896;28;20038;-70
2020/12/18 11:30:53;;;;;;;17.20;11.38;;;9.70;99.90;;;;;;4981629;28;20018;-70
2020/12/18 11:33:19;;;;;;;16.48;10.45;;;9.70;99.90;;;;;;4985481;28;20042;-70
2020/12/18 11:35:45;;;;;;;12.55;11.27;;;9.80;99.90;;;;;;4986374;28;20038;-71
2020/12/18 11:38:11;;;;;;;16.80;11.77;;;9.90;99.90;;;;;;4994053;28;20026;-71
2020/12/18 11:40:37;;;;;;;12.10;10.93;;;9.90;99.90;;;;;;4994495;28;20026;-70
2020/12/18 11:43:03;;;;;;;19.75;12.32;;;10.00;99.90;;;;;;4973742;28;20082;-71
2020/12/18 11:45:29;;;;;;;13.05;10.75;;;9.90;99.90;;;;;;4972693;28;20475;-70
2020/12/18 11:47:54;;;;;;;15.60;11.85;;;9.80;99.90;;;;;;4974516;28;20023;-70
2020/12/18 11:50:20;;;;;;;18.02;12.07;;;9.80;99.90;;;;;;4974886;28;20097;-71
2020/12/18 11:52:45;;;;;;;19.08;12.18;;;9.80;99.90;;;;;;4975091;28;20046;-71
2020/12/18 11:55:11;;;;;;;15.02;11.40;;;10.10;99.90;;;;;;4982823;28;20074;-69
2020/12/18 11:57:37;;;;;;;12.70;11.23;;;10.40;99.90;;;;;;4998790;28;20077;-70
2020/12/18 12:00:04;;;;;;;13.95;10.98;;;10.40;99.90;;;;;;4975512;28;20030;-70
2020/12/18 12:02:30;;;;;;;13.25;11.00;;;10.50;99.90;;;;;;4974863;28;20062;-71
2020/12/18 12:04:55;;;;;;;12.80;10.05;;;10.60;99.90;;;;;;4972216;28;20050;-71
2020/12/18 12:07:21;;;;;;;12.18;10.88;;;10.50;99.90;;;;;;4972260;28;20038;-71
2020/12/18 12:09:47;;;;;;;12.63;11.18;;;10.50;99.90;;;;;;4973673;28;20594;-70
2020/12/18 12:12:12;;;;;;;13.40;10.77;;;10.50;99.90;;;;;;4989704;28;20374;-71
2020/12/18 12:14:38;;;;;;;12.90;10.50;;;10.40;99.90;;;;;;4973892;28;20034;-71
2020/12/18 12:17:04;;;;;;;17.73;11.80;;;10.50;99.90;;;;;;4984792;28;20030;-71
2020/12/18 12:19:30;;;;;;;12.40;10.05;;;10.40;99.90;;;;;;4974597;28;20035;-71
2020/12/18 12:21:57;;;;;;;13.10;11.70;;;10.40;99.90;;;;;;4974107;28;20030;-71
2020/12/18 12:24:24;;;;;;;13.77;10.88;;;10.50;99.90;;;;;;4975087;28;20027;-71
2020/12/18 12:26:50;;;;;;;13.73;11.02;;;10.60;99.90;;;;;;4975078;28;20027;-71
2020/12/18 12:29:16;;;;;;;12.93;11.48;;;10.70;99.90;;;;;;4975337;28;20324;-71
2020/12/18 12:31:41;;;;;;;16.65;10.45;;;10.70;99.90;;;;;;4975383;28;20060;-71
2020/12/18 12:34:07;;;;;;;20.42;10.25;;;10.80;99.90;;;;;;4973630;28;20114;-71
2020/12/18 12:36:33;;;;;;;11.45;10.25;;;10.90;99.90;;;;;;4974508;28;20031;-70
2020/12/18 12:38:58;;;;;;;16.98;10.15;;;11.00;99.90;;;;;;4990341;28;20027;-70
2020/12/18 12:41:24;;;;;;;11.38;10.27;;;10.90;99.90;;;;;;4975429;28;20023;-70
2020/12/18 12:43:50;;;;;;;13.85;9.30;;;11.00;99.90;;;;;;4975352;28;20097;-71
2020/12/18 12:46:16;;;;;;;14.00;9.55;;;11.00;99.90;;;;;;4975312;28;20513;-70
2020/12/18 12:48:42;;;;;;;11.02;9.85;;;11.00;99.90;;;;;;4975846;28;20031;-71
2020/12/18 12:51:08;;;;;;;15.57;10.02;;;11.10;99.90;;;;;;4990982;28;20105;-72
2020/12/18 12:53:34;;;;;;;12.52;11.05;;;11.10;99.90;;;;;;4974567;28;20499;-71
2020/12/18 12:56:00;;;;;;;13.93;10.02;;;11.10;99.90;;;;;;4975895;28;20262;-71
2020/12/18 12:58:25;;;;;;;15.80;9.68;;;11.00;99.90;;;;;;4990579;28;20121;-69
2020/12/18 13:00:51;;;;;;;10.77;9.68;;;11.10;99.90;;;;;;4975453;28;20026;-70
2020/12/18 13:03:17;;;;;;;15.80;10.88;;;11.00;99.90;;;;;;4974356;28;20093;-72
2020/12/18 13:05:44;;;;;;;11.43;10.27;;;11.10;99.90;;;;;;4975411;28;20081;-70
2020/12/18 13:08:10;;;;;;;11.80;10.60;;;11.20;99.90;;;;;;4977699;28;20019;-71
2020/12/18 13:10:42;;;;;;;11.93;9.55;;;11.20;99.90;;;;;;4980901;28;20030;-70
2020/12/18 13:13:10;;;;;;;19.10;10.35;;;11.30;99.90;;;;;;4980607;28;20035;-70
2020/12/18 13:15:36;;;;;;;9.30;8.30;;;11.30;99.90;;;;;;4979292;28;20125;-71
2020/12/18 13:18:02;;;;;;;11.57;10.38;;;11.40;99.90;;;;;;4976315;28;20089;-70
2020/12/18 13:20:28;;;;;;;11.13;9.80;;;11.40;99.90;;;;;;4976221;28;20042;-71
2020/12/18 13:22:54;;;;;;;13.68;10.43;;;11.40;99.90;;;;;;4978091;28;20031;-71